createdAt,value
2022-08-11T00:01:18.241Z,2.10
2022-08-11T00:03:47.911Z,1.90
2022-08-11T00:06:15.718Z,2.10
2022-08-11T00:08:43.262Z,1.92
2022-08-11T00:11:11.990Z,2.00
2022-08-11T00:13:45.379Z,1.90
2022-08-11T00:16:18.006Z,1.88
2022-08-11T00:18:47.262Z,1.90
2022-08-11T00:21:15.225Z,1.70
2022-08-11T00:23:44.523Z,1.80
2022-08-11T00:26:12.288Z,2.00
2022-08-11T00:28:38.964Z,1.80
2022-08-11T00:31:11.812Z,1.70
2022-08-11T00:33:44.420Z,2.08
2022-08-11T00:36:20.828Z,1.92
2022-08-11T00:38:52.103Z,1.90
2022-08-11T00:41:18.411Z,1.77
2022-08-11T00:44:07.949Z,2.05
2022-08-11T00:46:42.996Z,1.75
2022-08-11T00:49:39.866Z,1.83
2022-08-11T00:52:38.468Z,1.90
2022-08-11T00:55:47.078Z,1.85
2022-08-11T00:58:41.717Z,2.00
2022-08-11T01:01:33.214Z,2.20
2022-08-11T01:04:18.131Z,1.85
2022-08-11T01:06:59.842Z,2.13
2022-08-11T01:10:07.102Z,2.05
2022-08-11T01:12:42.865Z,2.00
2022-08-11T01:15:29.044Z,2.10
2022-08-11T01:18:17.284Z,2.15
2022-08-11T01:21:05.496Z,2.10
2022-08-11T01:24:11.080Z,2.10
2022-08-11T01:26:43.527Z,1.83
2022-08-11T01:32:02.511Z,1.98
2022-08-11T01:34:50.541Z,2.03
2022-08-11T01:37:39.639Z,2.22
2022-08-11T01:40:23.868Z,2.05
2022-08-11T01:43:43.085Z,2.40
2022-08-11T01:46:25.615Z,2.33
2022-08-11T01:50:05.771Z,2.47
2022-08-11T01:52:31.031Z,2.15
2022-08-11T01:55:28.281Z,2.00
2022-08-11T01:58:07.392Z,2.30
2022-08-11T02:00:46.586Z,2.45
2022-08-11T02:03:23.557Z,1.92
2022-08-11T02:06:33.761Z,2.40
2022-08-11T02:09:20.691Z,1.90
2022-08-11T02:11:49.637Z,2.28
2022-08-11T02:14:26.327Z,2.20
2022-08-11T02:17:02.733Z,2.40
2022-08-11T02:19:57.030Z,2.15
2022-08-11T02:22:50.440Z,2.20
2022-08-11T02:25:31.493Z,2.10
2022-08-11T02:28:11.107Z,1.90
2022-08-11T02:30:42.932Z,2.25
2022-08-11T02:33:24.698Z,2.25
2022-08-11T02:36:10.989Z,2.07
2022-08-11T02:38:59.352Z,2.40
2022-08-11T02:41:58.294Z,2.17
2022-08-11T02:44:47.901Z,2.45
2022-08-11T02:47:42.223Z,1.98
2022-08-11T02:50:19.100Z,2.53
2022-08-11T02:53:21.757Z,2.30
2022-08-11T02:56:14.155Z,2.10
2022-08-11T02:59:22.523Z,2.20
2022-08-11T03:02:10.895Z,2.00
2022-08-11T03:05:01.017Z,1.90
2022-08-11T03:07:46.450Z,2.22
2022-08-11T03:10:23.412Z,2.20
2022-08-11T03:13:48.372Z,2.08
2022-08-11T03:16:44.668Z,2.22
2022-08-11T03:19:22.547Z,2.40
2022-08-11T03:22:03.222Z,2.08
2022-08-11T03:24:52.207Z,2.35
2022-08-11T03:27:39.631Z,2.17
2022-08-11T03:30:11.737Z,2.25
2022-08-11T03:33:08.923Z,2.72
2022-08-11T03:35:45.631Z,2.50
2022-08-11T03:38:15.990Z,2.38
2022-08-11T03:42:04.409Z,2.40
2022-08-11T03:44:39.446Z,3.17
2022-08-11T03:47:12.851Z,2.80
2022-08-11T03:50:08.693Z,2.25
2022-08-11T03:52:43.281Z,2.42
2022-08-11T03:55:21.926Z,2.50
2022-08-11T03:58:09.334Z,2.30
2022-08-11T04:00:47.961Z,2.70
2022-08-11T04:03:31.626Z,2.63
2022-08-11T04:06:14.961Z,2.58
2022-08-11T04:09:18.533Z,2.25
2022-08-11T04:12:35.619Z,2.55
2022-08-11T04:15:49.909Z,2.20
2022-08-11T04:18:42.230Z,2.70
2022-08-11T04:21:33.895Z,2.65
2022-08-11T04:24:39.625Z,2.95
2022-08-11T04:27:45.231Z,2.85
2022-08-11T04:30:18.979Z,2.63
2022-08-11T04:33:03.335Z,2.60
2022-08-11T04:35:48.645Z,2.95
2022-08-11T04:38:29.358Z,2.63
2022-08-11T04:41:16.308Z,2.88
2022-08-11T04:44:27.555Z,2.83
2022-08-11T04:47:06.359Z,3.15
2022-08-11T04:50:19.676Z,2.88
2022-08-11T04:56:09.860Z,3.05
2022-08-11T04:59:24.113Z,3.05
2022-08-11T05:02:02.799Z,2.95
2022-08-11T05:05:09.784Z,3.15
2022-08-11T05:08:17.682Z,3.08
2022-08-11T05:10:54.131Z,3.38
2022-08-11T05:13:51.283Z,3.10
2022-08-11T05:16:40.423Z,3.25
2022-08-11T05:19:25.562Z,3.22
2022-08-11T05:22:13.029Z,3.28
2022-08-11T05:25:02.210Z,3.67
2022-08-11T05:27:54.790Z,3.30
2022-08-11T05:30:46.315Z,3.13
2022-08-11T05:33:40.578Z,3.30
2022-08-11T05:36:25.641Z,3.58
2022-08-11T05:39:16.878Z,3.67
2022-08-11T05:42:02.547Z,3.95
2022-08-11T05:44:48.660Z,4.00
2022-08-11T05:47:44.281Z,4.10
2022-08-11T05:50:33.164Z,4.57
2022-08-11T05:53:19.686Z,3.67
2022-08-11T05:56:05.435Z,3.78
2022-08-11T05:58:43.296Z,3.33
2022-08-11T06:01:14.736Z,3.38
2022-08-11T06:04:03.899Z,3.10
2022-08-11T06:06:30.643Z,3.90
2022-08-11T06:08:58.111Z,2.92
2022-08-11T06:11:43.133Z,3.40
2022-08-11T06:14:11.532Z,2.95
2022-08-11T06:16:38.284Z,2.72
2022-08-11T06:19:05.296Z,2.80
2022-08-11T06:21:34.558Z,3.20
2022-08-11T06:24:03.821Z,2.70
2022-08-11T06:26:30.350Z,2.80
2022-08-11T06:28:58.503Z,2.83
2022-08-11T06:31:25.517Z,2.85
2022-08-11T06:34:12.267Z,3.13
2022-08-11T06:37:36.261Z,2.75
2022-08-11T06:40:42.248Z,2.65
2022-08-11T06:43:20.373Z,2.95
2022-08-11T06:46:03.128Z,2.60
2022-08-11T06:48:32.230Z,2.60
2022-08-11T06:51:12.761Z,2.70
2022-08-11T06:54:03.755Z,2.47
2022-08-11T06:57:28.844Z,2.70
2022-08-11T07:00:06.603Z,3.10
2022-08-11T07:02:52.357Z,2.90
2022-08-11T07:05:29.767Z,3.10
2022-08-11T07:08:44.246Z,2.60
2022-08-11T07:11:58.868Z,2.90
2022-08-11T07:14:45.647Z,2.30
2022-08-11T07:17:17.301Z,2.40
2022-08-11T07:20:05.366Z,2.42
2022-08-11T07:22:51.404Z,2.10
2022-08-11T07:25:36.917Z,2.45
2022-08-11T07:28:36.944Z,2.40
2022-08-11T07:31:07.805Z,2.53
2022-08-11T07:34:05.255Z,2.63
2022-08-11T07:36:33.007Z,2.08
2022-08-11T07:39:00.380Z,1.98
2022-08-11T07:41:28.841Z,1.92
2022-08-11T07:43:57.231Z,2.05
2022-08-11T07:46:42.908Z,1.90
2022-08-11T07:49:29.007Z,1.80
2022-08-11T07:52:14.618Z,1.70
2022-08-11T07:54:41.440Z,1.50
2022-08-11T07:58:10.160Z,1.83
2022-08-11T08:00:36.868Z,1.77
2022-08-11T08:03:23.298Z,1.50
2022-08-11T08:06:35.533Z,2.00
2022-08-11T08:09:14.430Z,1.48
2022-08-11T08:11:59.555Z,1.60
2022-08-11T08:14:44.610Z,1.50
2022-08-11T08:17:29.938Z,1.90
2022-08-11T08:19:56.442Z,1.30
2022-08-11T08:22:38.802Z,1.52
2022-08-11T08:25:07.992Z,1.30
2022-08-11T08:27:36.221Z,1.55
2022-08-11T08:30:23.501Z,1.20
2022-08-11T08:32:51.601Z,1.70
2022-08-11T08:35:18.692Z,1.20
2022-08-11T08:37:47.709Z,1.63
2022-08-11T08:40:14.830Z,1.30
2022-08-11T08:43:06.878Z,1.40
2022-08-11T08:45:37.702Z,1.27
2022-08-11T08:48:08.014Z,1.20
2022-08-11T08:50:56.121Z,1.40
2022-08-11T08:53:32.757Z,1.20
2022-08-11T08:56:00.948Z,1.63
2022-08-11T08:58:28.225Z,1.73
2022-08-11T09:00:56.840Z,1.33
2022-08-11T09:03:40.969Z,1.65
2022-08-11T09:06:10.780Z,1.63
2022-08-11T09:08:38.130Z,1.83
2022-08-11T09:11:24.371Z,1.90
2022-08-11T09:14:06.537Z,1.52
2022-08-11T09:16:36.615Z,1.60
2022-08-11T09:19:03.851Z,1.80
2022-08-11T09:21:48.363Z,1.45
2022-08-11T09:24:36.371Z,1.63
2022-08-11T09:27:06.613Z,1.60
2022-08-11T09:29:33.161Z,1.75
2022-08-11T09:32:00.008Z,1.50
2022-08-11T09:34:27.252Z,1.88
2022-08-11T09:37:13.450Z,1.90
2022-08-11T09:40:14.503Z,1.40
2022-08-11T09:43:00.458Z,1.77
2022-08-11T09:45:27.480Z,1.55
2022-08-11T09:48:07.309Z,1.50
2022-08-11T09:50:34.645Z,1.88
2022-08-11T09:53:35.995Z,1.60
2022-08-11T09:55:50.975Z,1.58
2022-08-11T09:58:42.919Z,1.50
2022-08-11T10:01:05.235Z,1.45
2022-08-11T10:03:35.481Z,1.80
2022-08-11T10:06:34.030Z,1.50
2022-08-11T10:09:03.121Z,1.50
2022-08-11T10:11:29.996Z,1.50
2022-08-11T10:14:33.462Z,1.67
2022-08-11T10:17:05.586Z,1.65
2022-08-11T10:19:33.026Z,1.58
2022-08-11T10:22:18.148Z,1.77
2022-08-11T10:25:03.707Z,1.60
2022-08-11T10:28:18.441Z,1.70
2022-08-11T10:30:35.821Z,1.80
2022-08-11T10:33:37.224Z,1.90
2022-08-11T10:36:16.501Z,1.75
2022-08-11T10:38:45.728Z,2.10
2022-08-11T10:41:31.963Z,1.88
2022-08-11T10:44:03.268Z,1.75
2022-08-11T10:49:16.059Z,1.65
2022-08-11T10:52:01.623Z,1.55
2022-08-11T10:54:47.201Z,1.60
2022-08-11T10:57:33.425Z,1.70
2022-08-11T11:00:00.664Z,1.58
2022-08-11T11:02:27.426Z,1.95
2022-08-11T11:05:01.318Z,1.52
2022-08-11T11:07:44.021Z,1.60
2022-08-11T11:10:11.291Z,1.55
2022-08-11T11:13:03.240Z,1.50
2022-08-11T11:15:49.939Z,1.33
2022-08-11T11:18:26.062Z,1.50
2022-08-11T11:21:10.353Z,1.48
2022-08-11T11:24:14.615Z,1.60
2022-08-11T11:26:58.335Z,1.25
2022-08-11T11:29:33.837Z,1.30
2022-08-11T11:32:16.665Z,1.75
2022-08-11T11:35:08.761Z,1.73
2022-08-11T11:40:06.395Z,1.75
2022-08-11T11:42:33.387Z,1.40
2022-08-11T11:45:01.432Z,1.75
2022-08-11T11:47:28.554Z,1.40
2022-08-11T11:49:55.490Z,1.52
2022-08-11T11:52:22.556Z,1.67
2022-08-11T11:54:53.285Z,1.52
2022-08-11T11:57:39.943Z,1.30
2022-08-11T12:00:33.515Z,1.58
2022-08-11T12:03:02.534Z,1.50
2022-08-11T12:05:31.716Z,1.70
2022-08-11T12:08:13.477Z,1.50
2022-08-11T12:10:48.344Z,1.67
2022-08-11T12:13:35.301Z,1.50
2022-08-11T12:16:32.123Z,1.55
2022-08-11T12:18:53.554Z,1.73
2022-08-11T12:21:20.761Z,1.80
2022-08-11T12:24:06.938Z,1.58
2022-08-11T12:27:16.941Z,1.27
2022-08-11T12:29:54.537Z,1.48
2022-08-11T12:32:24.388Z,1.60
2022-08-11T12:34:51.007Z,1.50
2022-08-11T12:37:23.612Z,1.63
2022-08-11T12:40:16.240Z,1.42
2022-08-11T12:43:22.304Z,1.55
2022-08-11T12:45:59.019Z,1.67
2022-08-11T12:49:00.801Z,1.60
2022-08-11T12:52:11.768Z,1.40
2022-08-11T12:54:52.986Z,1.60
2022-08-11T12:57:45.659Z,1.70
2022-08-11T13:00:31.169Z,1.73
2022-08-11T13:03:16.455Z,1.40
2022-08-11T13:05:45.187Z,1.40
2022-08-11T13:08:14.372Z,1.55
2022-08-11T13:10:59.508Z,1.67
2022-08-11T13:13:55.269Z,1.48
2022-08-11T13:16:14.858Z,1.73
2022-08-11T13:18:42.941Z,1.80
2022-08-11T13:21:20.539Z,1.70
2022-08-11T13:24:00.686Z,1.50
2022-08-11T13:26:41.553Z,1.38
2022-08-11T13:29:17.249Z,1.25
2022-08-11T13:31:43.961Z,1.58
2022-08-11T13:34:10.931Z,1.60
2022-08-11T13:36:38.742Z,1.60
2022-08-11T13:39:05.442Z,1.25
2022-08-11T13:41:39.182Z,1.48
2022-08-11T13:44:07.615Z,1.52
2022-08-11T13:46:34.382Z,1.30
2022-08-11T13:49:04.140Z,1.23
2022-08-11T13:51:34.724Z,1.30
2022-08-11T13:54:10.335Z,1.67
2022-08-11T13:56:39.797Z,1.67
2022-08-11T13:59:10.721Z,1.40
2022-08-11T14:02:20.771Z,1.37
2022-08-11T14:04:33.497Z,1.40
2022-08-11T14:07:03.827Z,1.17
2022-08-11T14:09:35.226Z,1.48
2022-08-11T14:12:24.543Z,1.73
2022-08-11T14:15:07.812Z,1.30
2022-08-11T14:17:48.050Z,1.20
2022-08-11T14:20:40.155Z,1.30
2022-08-11T14:23:04.551Z,1.30
2022-08-11T14:26:00.157Z,1.38
2022-08-11T14:28:31.652Z,1.30
2022-08-11T14:31:03.423Z,1.45
2022-08-11T14:33:59.613Z,1.48
2022-08-11T14:36:21.007Z,1.63
2022-08-11T14:38:48.144Z,1.30
2022-08-11T14:41:33.650Z,1.50
2022-08-11T14:44:18.916Z,1.10
2022-08-11T14:47:04.078Z,1.40
2022-08-11T14:49:31.765Z,1.50
2022-08-11T14:51:58.674Z,1.20
2022-08-11T14:54:44.870Z,1.63
2022-08-11T14:57:11.418Z,2.03
2022-08-11T14:59:38.082Z,1.35
2022-08-11T15:02:24.185Z,1.67
2022-08-11T15:04:51.261Z,1.67
2022-08-11T15:07:17.991Z,1.70
2022-08-11T15:12:33.549Z,1.73
2022-08-11T15:15:21.716Z,1.40
2022-08-11T15:17:49.406Z,1.70
2022-08-11T15:20:36.355Z,1.52
2022-08-11T15:23:22.896Z,1.45
2022-08-11T15:25:58.582Z,1.52
2022-08-11T15:28:46.327Z,1.75
2022-08-11T15:31:32.952Z,1.65
2022-08-11T15:34:21.991Z,1.40
2022-08-11T15:37:08.615Z,1.38
2022-08-11T15:40:31.452Z,1.60
2022-08-11T15:43:29.279Z,1.58
2022-08-11T15:46:02.436Z,1.70
2022-08-11T15:48:34.522Z,1.40
2022-08-11T15:51:09.563Z,1.55
2022-08-11T15:53:56.482Z,1.60
2022-08-11T15:56:25.516Z,1.70
2022-08-11T15:59:41.469Z,1.52
2022-08-11T16:02:30.668Z,1.50
2022-08-11T16:04:58.803Z,1.70
2022-08-11T16:07:27.402Z,1.70
2022-08-11T16:10:09.387Z,1.60
2022-08-11T16:13:03.541Z,1.50
2022-08-11T16:15:51.277Z,1.67
2022-08-11T16:18:20.927Z,1.65
2022-08-11T16:20:52.957Z,1.50
2022-08-11T16:23:19.695Z,1.63
2022-08-11T16:27:01.456Z,1.90
2022-08-11T16:28:34.407Z,1.50
2022-08-11T16:31:01.590Z,1.65
2022-08-11T16:33:48.411Z,1.52
2022-08-11T16:36:35.430Z,1.55
2022-08-11T16:39:02.277Z,1.50
2022-08-11T16:41:49.843Z,1.30
2022-08-11T16:44:37.783Z,1.73
2022-08-11T16:47:11.061Z,1.70
2022-08-11T16:49:53.289Z,1.52
2022-08-11T16:52:21.987Z,1.55
2022-08-11T16:54:48.718Z,1.50
2022-08-11T16:57:37.445Z,1.70
2022-08-11T17:00:07.134Z,1.30
2022-08-11T17:02:56.221Z,1.50
2022-08-11T17:05:54.739Z,1.75
2022-08-11T17:08:57.039Z,1.50
2022-08-11T17:11:46.407Z,1.60
2022-08-11T17:14:45.736Z,1.63
2022-08-11T17:17:15.726Z,1.38
2022-08-11T17:20:41.533Z,1.48
2022-08-11T17:22:55.563Z,1.48
2022-08-11T17:25:24.570Z,1.70
2022-08-11T17:27:52.580Z,1.77
2022-08-11T17:30:19.216Z,1.75
2022-08-11T17:33:07.844Z,1.48
2022-08-11T17:35:38.883Z,1.60
2022-08-11T17:38:12.444Z,1.80
2022-08-11T17:41:01.176Z,1.67
2022-08-11T17:43:48.126Z,1.58
2022-08-11T17:46:34.710Z,1.40
2022-08-11T17:49:01.823Z,1.40
2022-08-11T17:51:47.830Z,1.55
2022-08-11T17:54:33.422Z,1.73
2022-08-11T17:57:19.888Z,1.80
2022-08-11T17:59:53.910Z,1.63
2022-08-11T18:02:43.221Z,1.42
2022-08-11T18:05:13.386Z,1.50
2022-08-11T18:08:02.786Z,1.70
2022-08-11T18:10:50.377Z,1.30
2022-08-11T18:13:38.973Z,1.58
2022-08-11T18:16:24.117Z,1.50
2022-08-11T18:19:09.287Z,1.52
2022-08-11T18:22:01.716Z,1.60
2022-08-11T18:24:58.976Z,1.50
2022-08-11T18:27:46.966Z,1.50
2022-08-11T18:30:32.090Z,1.70
2022-08-11T18:33:45.171Z,1.40
2022-08-11T18:36:27.452Z,1.50
2022-08-11T18:39:13.660Z,1.50
2022-08-11T18:42:00.390Z,1.50
2022-08-11T18:44:47.782Z,1.60
2022-08-11T18:47:35.677Z,1.70
2022-08-11T18:50:33.353Z,1.50
2022-08-11T18:53:24.599Z,1.70
2022-08-11T18:56:11.107Z,1.95
2022-08-11T18:58:57.083Z,1.58
2022-08-11T19:01:46.000Z,1.60
2022-08-11T19:04:32.307Z,1.60
2022-08-11T19:07:23.560Z,1.60
2022-08-11T19:10:09.750Z,1.88
2022-08-11T19:12:57.647Z,1.80
2022-08-11T19:15:42.975Z,1.95
2022-08-11T19:18:32.804Z,1.80
2022-08-11T19:21:18.475Z,1.67
2022-08-11T19:24:07.051Z,1.90
2022-08-11T19:26:53.111Z,1.85
2022-08-11T19:30:09.079Z,1.80
2022-08-11T19:32:44.132Z,1.63
2022-08-11T19:35:30.148Z,1.75
2022-08-11T19:38:16.461Z,1.58
2022-08-11T19:41:03.100Z,1.70
2022-08-11T19:43:49.368Z,2.00
2022-08-11T19:46:37.306Z,1.75
2022-08-11T19:49:23.455Z,1.60
2022-08-11T19:52:08.629Z,1.60
2022-08-11T19:54:54.718Z,1.40
2022-08-11T19:57:41.304Z,2.10
2022-08-11T20:00:30.577Z,1.77
2022-08-11T20:03:17.742Z,1.70
2022-08-11T20:06:03.871Z,1.65
2022-08-11T20:08:49.951Z,1.70
2022-08-11T20:11:36.126Z,1.80
2022-08-11T20:14:21.707Z,1.85
2022-08-11T20:17:06.975Z,2.05
2022-08-11T20:19:55.646Z,2.35
2022-08-11T20:22:43.930Z,1.65
2022-08-11T20:25:29.570Z,1.58
2022-08-11T20:28:14.768Z,1.60
2022-08-11T20:31:02.697Z,1.80
2022-08-11T20:33:47.803Z,1.70
2022-08-11T20:36:34.935Z,1.58
2022-08-11T20:39:21.295Z,1.77
2022-08-11T20:42:06.957Z,1.50
2022-08-11T20:44:53.800Z,1.58
2022-08-11T20:47:56.312Z,1.80
2022-08-11T20:50:45.704Z,1.70
2022-08-11T20:53:35.809Z,2.00
2022-08-11T20:56:22.368Z,1.73
2022-08-11T20:59:17.287Z,1.50
2022-08-11T21:02:03.077Z,1.80
2022-08-11T21:07:59.035Z,1.90
2022-08-11T21:10:52.429Z,1.60
2022-08-11T21:13:39.226Z,2.00
2022-08-11T21:16:27.283Z,2.13
2022-08-11T21:19:19.202Z,2.00
2022-08-11T21:22:28.015Z,2.33
2022-08-11T21:25:15.370Z,1.98
2022-08-11T21:28:01.440Z,1.92
2022-08-11T21:30:47.446Z,2.30
2022-08-11T21:33:32.526Z,2.17
2022-08-11T21:36:18.183Z,2.58
2022-08-11T21:39:04.232Z,2.42
2022-08-11T21:41:50.426Z,2.22
2022-08-11T21:44:36.826Z,1.90
2022-08-11T21:47:42.841Z,2.42
2022-08-11T21:50:28.454Z,2.10
2022-08-11T21:53:15.422Z,1.90
2022-08-11T21:56:01.245Z,2.05
2022-08-11T21:58:46.266Z,2.20
2022-08-11T22:01:34.553Z,2.40
2022-08-11T22:04:19.858Z,2.25
2022-08-11T22:07:04.809Z,2.28
2022-08-11T22:09:49.972Z,2.15
2022-08-11T22:12:36.472Z,2.03
2022-08-11T22:15:25.444Z,2.25
2022-08-11T22:18:10.481Z,1.90
2022-08-11T22:20:57.480Z,1.98
2022-08-11T22:23:43.072Z,2.13
2022-08-11T22:26:30.817Z,2.10
2022-08-11T22:29:16.908Z,2.10
2022-08-11T22:32:01.914Z,2.33
2022-08-11T22:34:53.485Z,2.10
2022-08-11T22:37:40.400Z,2.53
2022-08-11T22:40:27.546Z,2.25
2022-08-11T22:43:12.284Z,3.33
2022-08-11T22:45:57.495Z,2.20
2022-08-11T22:48:44.658Z,2.35
2022-08-11T22:51:29.917Z,2.42
2022-08-11T22:54:16.094Z,2.20
2022-08-11T22:57:01.678Z,2.35
2022-08-11T22:59:47.154Z,2.53
2022-08-11T23:02:33.258Z,2.60
2022-08-11T23:05:18.504Z,2.35
2022-08-11T23:08:03.540Z,2.67
2022-08-11T23:10:49.100Z,2.75
2022-08-11T23:13:34.756Z,2.58
2022-08-11T23:16:20.284Z,2.78
2022-08-11T23:19:05.567Z,2.88
2022-08-11T23:21:51.606Z,2.50
2022-08-11T23:24:36.802Z,2.25
2022-08-11T23:27:23.066Z,2.28
2022-08-11T23:30:09.182Z,2.50
2022-08-11T23:32:54.953Z,2.30
2022-08-11T23:35:51.925Z,2.47
2022-08-11T23:38:40.419Z,2.35
2022-08-11T23:41:25.212Z,2.17
2022-08-11T23:44:10.452Z,2.15
2022-08-11T23:46:57.740Z,2.28
2022-08-11T23:49:43.373Z,2.00
2022-08-11T23:52:28.390Z,1.95
2022-08-11T23:55:13.887Z,2.25
2022-08-11T23:57:58.959Z,2.40
